McColl, South Carolina
Current Conditions -  °F | °C
As of 9:15 AM on Wednesday 26 Nov 2014 (Local Time) from KBBP Reporting Station
Overcast Overcast  
Wind Chill: 52°   Ceiling: 11000
Heat Index: 52°   Visibility: 10mi
Dew Point: 52°   Wind: 16mph
Humidity: 100%   Direction: 20°NNE
Pressure: 29.89"   Gusts: 24mph
Location:  34.67°N, 79.55°W
Report Text: KBBP 261415Z AUTO 02014G21KT 10SM OVC110 11/11 A2989 RMK AO2
Loading
Personal Weather Stations






























Interactive Weather Map New forecast layout! Learn more

10-Day Weather Forecast

Advertisements
Track Severe Weather on mobile